• Join FlightAware (Why Join?)
  • Login
  • US Flag 
07:37PM EDT


 

Airport Tracker/Info


-or-


 

Live Flight TrackerFlight Track Log ✈ PDT4226 ✈ 18-Oct-2013 ✈ KPHL - KBGM

Flight Track Log - Related Links

Times and Time Zones

All times are in EDT time to prevent confusion due to time zone crossing. See the PDT4226 flight status page for this flight to view local times or setup timezone preferences in your user account.

Time Position Orientation Groundspeed Altitude Reporting Facility
EDT Latitude Longitude Course Direction KTS MPH feet Rate Location/Type
12:19PM 39.8667 -75.2833 287° West 118 136 1,000  Level Philadelphia TRACON
12:20PM 39.8833 -75.3167 303° West 116 133 2,700 1,260 Climbing Philadelphia TRACON
12:21PM 39.8833 -75.3667 270° West 118 136 3,900 1,140 Climbing Philadelphia TRACON
12:22PM 40.0914 -75.3079 323° Northwest  Level Estimated
12:22PM 39.8958 -75.3922 303° West 127 146 4,600  Level New York Center
12:23PM 40.1644 -75.3304 311° West  Level Estimated
12:23PM 39.9153 -75.4261 307° West 129 148 5,700  Level New York Center
12:24PM 40.2374 -75.3529 311° West  Level Estimated
12:24PM 39.9431 -75.4603 317° Northwest 164 189 6,400  Level New York Center
12:25PM 40.2590 -75.4470 287° West  Level FlightAware Approximate
12:25PM 39.9456 -75.5039 274° West 151 174 7,200  Level New York Center
12:26PM 39.9617 -75.5672 288° West 151 174 8,100 780 Climbing New York Center
12:27PM 40.0039 -75.5594 North 201 231 8,800 420 Climbing New York Center
12:28PM 40.0642 -75.5608 359° North 201 231 9,000 60 Climbing New York Center
12:29PM 40.1206 -75.5592 North 209 241 9,000 480 Level New York Center
12:30PM 40.1894 -75.5531 North 222 255 10,000 960 Climbing New York Center
12:31PM 40.2347 -75.5697 344° North 195 224 11,000 900 Climbing New York Center
12:32PM 40.2558 -75.6119 303° West 156 180 11,800 480 Climbing New York Center
12:33PM 40.2856 -75.6550 312° West 150 173 12,000 60 Climbing New York Center
12:34PM 40.3247 -75.7122 312° West 180 207 12,000  Level New York Center
12:35PM 40.3581 -75.7636 310° West 185 213 12,000 300 Level New York Center
12:36PM 40.3958 -75.8072 319° Northwest 185 213 12,700 840 Climbing New York Center
12:37PM 40.4386 -75.8267 341° North 174 200 13,700 600 Climbing New York Center
12:38PM 40.4811 -75.8572 331° Northwest 174 200 14,000 120 Climbing New York Center
12:39PM 40.5294 -75.8961 329° Northwest 181 208 14,000  Level New York Center
12:40PM 40.5781 -75.9300 332° Northwest 186 214 14,000  Level New York Center
12:41PM 40.6289 -75.9611 335° Northwest 197 227 14,000  Level New York Center
12:42PM 40.6769 -76.0003 328° Northwest 192 221 14,000  Level New York Center
12:43PM 40.7258 -76.0314 334° Northwest 197 227 14,000  Level New York Center
12:44PM 40.7742 -76.0681 330° Northwest 197 227 14,000  Level New York Center
12:45PM 40.8186 -76.0989 332° Northwest 197 227 14,000  Level New York Center
12:46PM 40.8689 -76.1358 331° Northwest 197 227 14,000  Level New York Center
12:47PM 40.9236 -76.1731 333° Northwest 197 227 14,000  Level New York Center
12:48PM 40.9761 -76.2103 332° Northwest 197 227 14,000  Level New York Center
12:49PM 41.0292 -76.2336 342° North 197 227 14,000  Level New York Center
12:50PM 41.0881 -76.2219 North 213 245 14,000  Level New York Center
12:51PM 41.1511 -76.2103 North 229 264 14,000  Level New York Center
12:52PM 41.2197 -76.2131 358° North 229 264 14,000  Level New York Center
12:53PM 41.2828 -76.2017 North 229 264 14,000  Level New York Center
12:54PM 41.3456 -76.1931 North 229 264 14,000  Level New York Center
12:55PM 41.4039 -76.1922 North 229 264 14,000  Level New York Center
12:56PM 41.4664 -76.1917 360° North 229 264 14,000 -120 Level New York Center
12:57PM 41.5378 -76.1808 North 235 270 13,800 -360 Descending New York Center
12:58PM 41.6069 -76.1725 North 240 276 13,300 -540 Descending New York Center
12:59PM 41.6756 -76.1697 North 240 276 12,800 -540 Descending New York Center
01:00PM 41.7372 -76.1442 17° North 240 276 12,300 -540 Descending New York Center
01:01PM 41.8083 -76.0886 30° Northeast 263 303 11,800 -540 Descending New York Center
01:02PM 41.8769 -76.0439 26° Northeast 268 308 11,300 -540 Descending New York Center
01:03PM 41.9394 -75.9958 30° Northeast 268 308 10,800 -540 Descending New York Center
01:04PM 41.9975 -75.9558 27° Northeast 268 308 10,300 -600 Descending New York Center
01:05PM 42.0664 -75.9056 28° Northeast 258 297 9,600 -660 Descending New York Center
01:06PM 42.1242 -75.8681 26° Northeast 245 282 9,000 -300 Descending New York Center
01:07PM 42.1858 -75.8364 21° North 235 270 9,000  Level New York Center
01:08PM 42.2261 -75.8675 330° Northwest 181 208 9,000  Level New York Center
01:09PM 42.2114 -75.9222 250° West 103 119 9,000  Level New York Center
01:10PM 42.2161 -75.9564 281° West 103 119 9,000  Level New York Center
01:11PM 42.2189 -75.9900 276° West 103 119 9,000  Level New York Center